Laguna Niguel, California
Current Conditions -  °F | °C
As of 1:53 PM on Friday 28 Nov 2014 (Local Time) from KSNA Reporting Station
Clear Clear  
Wind Chill: 78°   Ceiling: Unl
Heat Index: 78°   Visibility: 10mi
Dew Point: 33°   Wind: 8mph
Humidity: 19%   Direction: 200°SSW
Pressure: 29.9"   Gusts: NA
Location:  33.56°N, 117.7°W
Report Text: KSNA 282153Z 20007KT 10SM CLR 26/01 A2990 RMK AO2 SLP124 T02560006
Loading
Personal Weather Stations






























Interactive Weather Map New forecast layout! Learn more

10-Day Weather Forecast

Advertisements
Track Severe Weather on mobile